Time;durP1;ratioP1;P1;durP2;ratioP2;P2;SDS_P1;SDS_P2;PMS_P1;PMS_P2;Temp;Humidity;BMP_temperature;BMP_pressure;BME280_temperature;BME280_humidity;BME280_pressure;Samples;Min_cycle;Max_cycle;Signal;HPM_P1;HPM_P2
2023/04/24 00:01:16;;;;;;;;;;;;;;;13.84;41.52;99579.22;5091609;28;19912;-61
2023/04/24 00:03:42;;;;;;;;;;;;;;;13.93;41.25;99572.41;5092012;28;19923;-60
2023/04/24 00:06:08;;;;;;;;;;;;;;;13.88;41.36;99559.59;5093598;28;19923;-62
2023/04/24 00:08:33;;;;;;;;;;;;;;;13.91;41.97;99563.69;5093627;28;19990;-61
2023/04/24 00:10:58;;;;;;;;;;;;;;;13.90;41.43;99562.88;5091459;28;19922;-61
2023/04/24 00:13:24;;;;;;;;;;;;;;;13.95;41.36;99578.38;5095571;28;20023;-60
2023/04/24 00:15:49;;;;;;;;;;;;;;;13.89;40.89;99579.31;5093972;28;20473;-59
2023/04/24 00:18:15;;;;;;;;;;;;;;;13.90;41.43;99580.97;5095203;28;19931;-59
2023/04/24 00:20:40;;;;;;;;;;;;;;;13.85;41.84;99576.25;5095236;28;20009;-59
2023/04/24 00:23:06;;;;;;;;;;;;;;;13.87;41.28;99582.28;5095993;28;19919;-59
2023/04/24 00:25:31;;;;;;;;;;;;;;;13.93;41.04;99575.91;5095166;28;19937;-59
2023/04/24 00:27:56;;;;;;;;;;;;;;;13.92;41.34;99570.75;5094876;28;19939;-58
2023/04/24 00:30:22;;;;;;;;;;;;;;;13.89;41.40;99569.38;5096167;28;19919;-60
2023/04/24 00:32:47;;;;;;;;;;;;;;;13.95;41.48;99564.88;5096866;28;19919;-60
2023/04/24 00:35:14;;;;;;;;;;;;;;;13.85;41.55;99564.66;5097163;28;20390;-62
2023/04/24 00:37:40;;;;;;;;;;;;;;;13.81;41.17;99577.00;5097325;28;19920;-59
2023/04/24 00:40:06;;;;;;;;;;;;;;;13.80;41.47;99564.53;5098140;28;19957;-55
2023/04/24 00:42:31;;;;;;;;;;;;;;;13.80;41.22;99565.38;5097622;28;19923;-55
2023/04/24 00:44:56;;;;;;;;;;;;;;;13.84;41.56;99563.03;5096698;28;20112;-60
2023/04/24 00:47:22;;;;;;;;;;;;;;;13.81;41.49;99563.50;5095892;28;19916;-58
2023/04/24 00:49:47;;;;;;;;;;;;;;;13.78;41.92;99556.72;5096369;28;20375;-58
2023/04/24 00:52:17;;;;;;;;;;;;;;;13.65;41.71;99557.78;5096810;28;19912;-58
2023/04/24 00:54:42;;;;;;;;;;;;;;;13.63;41.86;99557.19;5096673;28;19925;-58
2023/04/24 00:57:07;;;;;;;;;;;;;;;13.59;41.64;99569.50;5097682;28;20248;-59
2023/04/24 00:59:33;;;;;;;;;;;;;;;13.44;42.23;99569.16;5095930;28;19920;-59
2023/04/24 01:01:58;;;;;;;;;;;;;;;13.53;41.80;99565.84;5097597;28;20331;-59
2023/04/24 01:04:24;;;;;;;;;;;;;;;13.57;42.29;99571.59;5096888;28;20300;-59
2023/04/24 01:06:50;;;;;;;;;;;;;;;13.61;42.28;99572.78;5096833;28;19965;-59
2023/04/24 01:09:16;;;;;;;;;;;;;;;13.39;42.30;99566.34;5095585;28;19939;-59
2023/04/24 01:11:42;;;;;;;;;;;;;;;13.55;42.19;99565.63;5094952;28;20451;-58
2023/04/24 01:14:08;;;;;;;;;;;;;;;13.57;41.98;99568.91;5096128;28;19935;-59
2023/04/24 01:16:33;;;;;;;;;;;;;;;13.50;41.65;99570.91;5095215;28;19920;-59
2023/04/24 01:18:59;;;;;;;;;;;;;;;13.51;41.81;99581.47;5095878;28;19920;-58
2023/04/24 01:21:27;;;;;;;;;;;;;;;13.42;41.99;99577.47;5096950;28;20006;-58
2023/04/24 01:23:52;;;;;;;;;;;;;;;13.48;41.74;99578.41;5097202;28;20376;-59
2023/04/24 01:26:19;;;;;;;;;;;;;;;13.48;42.18;99575.72;5096504;28;19920;-57
2023/04/24 01:28:45;;;;;;;;;;;;;;;13.50;41.49;99570.91;5095972;28;19916;-58
2023/04/24 01:31:10;;;;;;;;;;;;;;;13.44;41.49;99569.97;5096193;28;20398;-60
2023/04/24 01:33:36;;;;;;;;;;;;;;;13.35;42.09;99557.88;5096270;28;19916;-59
2023/04/24 01:36:01;;;;;;;;;;;;;;;13.37;41.90;99558.47;5096295;28;19949;-60
2023/04/24 01:38:26;;;;;;;;;;;;;;;13.38;42.11;99562.81;5099335;28;20379;-59
2023/04/24 01:40:52;;;;;;;;;;;;;;;13.42;42.00;99563.19;5099490;28;19963;-59
2023/04/24 01:43:18;;;;;;;;;;;;;;;13.44;42.52;99561.06;5098502;28;20379;-60
2023/04/24 01:45:43;;;;;;;;;;;;;;;13.48;41.93;99564.94;5099629;28;19919;-59
2023/04/24 01:48:09;;;;;;;;;;;;;;;13.41;42.81;99562.38;5099357;28;20011;-60
2023/04/24 01:50:34;;;;;;;;;;;;;;;13.45;42.83;99562.72;5098862;28;19924;-59
2023/04/24 01:52:59;;;;;;;;;;;;;;;13.41;43.00;99562.38;5099859;28;19919;-57
2023/04/24 01:55:25;;;;;;;;;;;;;;;13.40;43.24;99568.81;5099503;28;20340;-59
2023/04/24 01:57:51;;;;;;;;;;;;;;;13.34;43.48;99562.47;5099123;28;19973;-61
2023/04/24 02:00:17;;;;;;;;;;;;;;;13.34;43.72;99565.16;5099884;28;19923;-59
2023/04/24 02:02:42;;;;;;;;;;;;;;;13.32;43.95;99563.78;5099130;28;19912;-59
2023/04/24 02:05:08;;;;;;;;;;;;;;;13.29;44.19;99562.31;5099749;28;20365;-60
2023/04/24 02:07:34;;;;;;;;;;;;;;;13.29;44.55;99565.00;5099135;28;19916;-60
2023/04/24 02:09:59;;;;;;;;;;;;;;;13.22;44.59;99563.47;5099217;28;19977;-60
2023/04/24 02:12:24;;;;;;;;;;;;;;;13.13;44.80;99558.44;5099621;28;20412;-58
2023/04/24 02:14:50;;;;;;;;;;;;;;;13.14;44.50;99565.47;5098091;28;19920;-60
2023/04/24 02:17:16;;;;;;;;;;;;;;;13.14;44.63;99561.94;5099270;28;19912;-59
2023/04/24 02:19:41;;;;;;;;;;;;;;;13.21;44.92;99548.38;5097121;28;19912;-58
2023/04/24 02:22:06;;;;;;;;;;;;;;;13.21;45.12;99542.97;5080629;28;19912;-59
2023/04/24 02:24:31;;;;;;;;;;;;;;;13.28;44.68;99544.50;5097491;28;19912;-60
2023/04/24 02:26:57;;;;;;;;;;;;;;;13.25;44.68;99544.97;5099701;28;19919;-59
2023/04/24 02:29:23;;;;;;;;;;;;;;;13.31;43.82;99544.06;5100193;28;20018;-59
2023/04/24 02:31:48;;;;;;;;;;;;;;;13.35;43.61;99539.84;5100043;28;19958;-59
2023/04/24 02:34:13;;;;;;;;;;;;;;;13.31;44.15;99540.53;5100391;28;19923;-59
2023/04/24 02:36:38;;;;;;;;;;;;;;;13.26;44.72;99541.22;5100206;28;20321;-55
2023/04/24 02:39:04;;;;;;;;;;;;;;;13.26;43.97;99543.91;5099530;28;19916;-60
2023/04/24 02:41:31;;;;;;;;;;;;;;;13.35;43.99;99545.25;5099034;28;19920;-59
2023/04/24 02:43:57;;;;;;;;;;;;;;;13.30;43.83;99538.88;5097117;28;20250;-59
2023/04/24 02:46:23;;;;;;;;;;;;;;;13.24;44.16;99540.66;5099296;28;19919;-59
2023/04/24 02:48:48;;;;;;;;;;;;;;;13.14;44.21;99535.00;5097605;28;19919;-57
2023/04/24 02:51:13;;;;;;;;;;;;;;;13.02;43.98;99540.38;5098871;28;19912;-59
2023/04/24 02:53:39;;;;;;;;;;;;;;;13.17;44.45;99535.34;5097922;28;19959;-59
2023/04/24 02:56:06;;;;;;;;;;;;;;;13.11;43.86;99540.84;5096276;28;19936;-61
2023/04/24 02:58:32;;;;;;;;;;;;;;;13.11;43.47;99532.75;5095458;28;19919;-57
2023/04/24 03:00:57;;;;;;;;;;;;;;;13.03;44.23;99533.94;5095569;28;19972;-60
2023/04/24 03:03:23;;;;;;;;;;;;;;;13.05;44.11;99541.78;5096052;28;19912;-59
2023/04/24 03:05:49;;;;;;;;;;;;;;;13.10;43.86;99534.63;5096050;28;19927;-60
2023/04/24 03:08:14;;;;;;;;;;;;;;;13.13;43.45;99544.13;5095093;28;19920;-59
2023/04/24 03:10:40;;;;;;;;;;;;;;;13.10;43.63;99547.31;5096796;28;19916;-61
2023/04/24 03:13:05;;;;;;;;;;;;;;;13.19;44.02;99543.22;5097608;28;20288;-59
2023/04/24 03:15:30;;;;;;;;;;;;;;;13.20;43.40;99547.53;5098633;28;20106;-56
2023/04/24 03:17:56;;;;;;;;;;;;;;;13.20;43.37;99544.03;5098529;28;19959;-59
2023/04/24 03:20:21;;;;;;;;;;;;;;;13.13;43.79;99549.50;5098425;28;19916;-59
2023/04/24 03:22:46;;;;;;;;;;;;;;;13.05;43.87;99555.25;5098330;28;19918;-58
2023/04/24 03:25:11;;;;;;;;;;;;;;;13.04;43.70;99553.59;5098485;28;19916;-59
2023/04/24 03:27:37;;;;;;;;;;;;;;;13.05;44.33;99557.97;5096150;28;19951;-59
2023/04/24 03:30:03;;;;;;;;;;;;;;;12.96;43.99;99552.91;5098447;28;20275;-60
2023/04/24 03:32:28;;;;;;;;;;;;;;;13.00;43.32;99560.53;5098177;28;20002;-58
2023/04/24 03:34:53;;;;;;;;;;;;;;;13.00;43.50;99558.66;5097425;28;19923;-60
2023/04/24 03:37:19;;;;;;;;;;;;;;;12.98;43.73;99566.97;5098087;28;19983;-59
2023/04/24 03:39:44;;;;;;;;;;;;;;;12.96;43.89;99557.47;5096216;28;19916;-58
2023/04/24 03:42:10;;;;;;;;;;;;;;;12.99;43.64;99562.41;5098381;28;20327;-60
2023/04/24 03:44:35;;;;;;;;;;;;;;;12.98;43.41;99558.91;5097165;28;19912;-58
2023/04/24 03:47:00;;;;;;;;;;;;;;;12.96;44.08;99555.63;5096217;28;20020;-60
2023/04/24 03:49:26;;;;;;;;;;;;;;;12.91;43.73;99557.38;5097135;28;19916;-59
2023/04/24 03:51:52;;;;;;;;;;;;;;;12.91;43.47;99554.66;5097724;28;19984;-58
2023/04/24 03:54:17;;;;;;;;;;;;;;;12.86;43.88;99551.84;5097413;28;19955;-58
2023/04/24 03:56:42;;;;;;;;;;;;;;;12.82;44.12;99556.88;5097961;28;19977;-59
2023/04/24 03:59:08;;;;;;;;;;;;;;;12.94;44.00;99552.28;5096191;28;19919;-59
2023/04/24 04:01:36;;;;;;;;;;;;;;;12.94;43.82;99548.78;5096722;28;20271;-59
2023/04/24 04:04:01;;;;;;;;;;;;;;;12.90;44.23;99544.94;5096114;28;20006;-58
2023/04/24 04:06:27;;;;;;;;;;;;;;;12.78;44.75;99553.00;5098255;28;19951;-60
2023/04/24 04:08:52;;;;;;;;;;;;;;;12.83;43.87;99561.19;5096419;28;19922;-60
2023/04/24 04:11:17;;;;;;;;;;;;;;;12.78;44.68;99563.78;5097517;28;20040;-58
2023/04/24 04:13:42;;;;;;;;;;;;;;;12.84;44.51;99562.84;5096295;28;19931;-60
2023/04/24 04:16:08;;;;;;;;;;;;;;;12.85;44.51;99553.72;5097654;28;19916;-60
2023/04/24 04:18:33;;;;;;;;;;;;;;;12.54;44.39;99504.44;5098150;28;19912;-59
2023/04/24 04:21:01;;;;;;;;;;;;;;;12.82;44.15;99556.88;5097379;28;20014;-59
2023/04/24 04:23:26;;;;;;;;;;;;;;;12.74;44.14;99547.25;5097712;28;19912;-58
2023/04/24 04:25:51;;;;;;;;;;;;;;;12.71;44.45;99549.56;5098519;28;19935;-59
2023/04/24 04:28:19;;;;;;;;;;;;;;;12.76;44.24;99545.13;5096003;28;19938;-60
2023/04/24 04:30:45;;;;;;;;;;;;;;;12.84;43.95;99549.38;5097327;28;20038;-59
2023/04/24 04:33:10;;;;;;;;;;;;;;;12.77;43.76;99535.16;5094974;28;19922;-58
2023/04/24 04:35:36;;;;;;;;;;;;;;;12.69;43.77;99539.03;5096888;28;19912;-58
2023/04/24 04:38:01;;;;;;;;;;;;;;;12.68;43.46;99542.75;5097298;28;19916;-59
2023/04/24 04:40:28;;;;;;;;;;;;;;;12.51;43.85;99531.81;5096938;28;19933;-60
2023/04/24 04:42:53;;;;;;;;;;;;;;;12.57;44.20;99528.22;5098758;28;19919;-60
2023/04/24 04:45:20;;;;;;;;;;;;;;;12.49;44.04;99528.53;5097455;28;19920;-60
2023/04/24 04:47:46;;;;;;;;;;;;;;;12.19;43.98;99477.41;5096328;28;19948;-60
2023/04/24 04:50:12;;;;;;;;;;;;;;;12.58;44.30;99532.53;5096684;28;19961;-58
2023/04/24 04:52:37;;;;;;;;;;;;;;;12.61;43.85;99530.44;5078959;28;20364;-60
2023/04/24 04:55:02;;;;;;;;;;;;;;;12.54;43.90;99542.16;5095464;28;19936;-60
2023/04/24 04:57:27;;;;;;;;;;;;;;;12.48;43.73;99534.16;5097477;28;19933;-59
2023/04/24 04:59:53;;;;;;;;;;;;;;;12.45;44.03;99530.06;5097550;28;19919;-60
2023/04/24 05:02:18;;;;;;;;;;;;;;;12.45;43.95;99529.25;5096230;28;19971;-58
2023/04/24 05:04:44;;;;;;;;;;;;;;;12.52;43.48;99532.66;5096057;28;20355;-58
2023/04/24 05:07:10;;;;;;;;;;;;;;;12.61;43.40;99530.44;5095420;28;19987;-60
2023/04/24 05:09:35;;;;;;;;;;;;;;;12.63;43.32;99539.13;5095834;28;19970;-58
2023/04/24 05:12:02;;;;;;;;;;;;;;;12.57;43.46;99539.00;5096286;28;19920;-56
2023/04/24 05:14:27;;;;;;;;;;;;;;;12.62;43.27;99540.19;5100931;28;19922;-60
2023/04/24 05:16:52;;;;;;;;;;;;;;;12.64;43.13;99536.19;5100164;28;19944;-60
2023/04/24 05:19:18;;;;;;;;;;;;;;;12.62;43.03;99540.19;5098979;28;19913;-58
2023/04/24 05:21:43;;;;;;;;;;;;;;;12.61;43.53;99547.44;5101500;28;19917;-58
2023/04/24 05:24:08;;;;;;;;;;;;;;;12.64;44.10;99551.53;5101638;28;19912;-59
2023/04/24 05:26:33;;;;;;;;;;;;;;;12.63;43.80;99539.94;5101948;28;19912;-60
2023/04/24 05:28:59;;;;;;;;;;;;;;;12.61;43.88;99538.53;5101072;28;20363;-59
2023/04/24 05:31:25;;;;;;;;;;;;;;;12.68;43.50;99533.88;5100169;28;19915;-60
2023/04/24 05:33:50;;;;;;;;;;;;;;;12.68;43.46;99526.59;5101009;28;20402;-60
2023/04/24 05:36:15;;;;;;;;;;;;;;;12.64;43.22;99538.06;5101167;28;20312;-60
2023/04/24 05:38:41;;;;;;;;;;;;;;;12.59;43.90;99536.91;5100105;28;19912;-60
2023/04/24 05:41:06;;;;;;;;;;;;;;;12.56;43.36;99531.97;5099032;28;19973;-59
2023/04/24 05:43:31;;;;;;;;;;;;;;;12.48;43.17;99529.59;5100058;28;19951;-60
2023/04/24 05:45:57;;;;;;;;;;;;;;;12.52;43.31;99538.03;5101244;28;20364;-60
2023/04/24 05:48:23;;;;;;;;;;;;;;;12.58;43.35;99537.94;5100432;28;19912;-60
2023/04/24 05:50:48;;;;;;;;;;;;;;;12.57;43.50;99532.78;5100915;28;19947;-59
2023/04/24 05:53:13;;;;;;;;;;;;;;;12.63;43.10;99537.25;5101106;28;20406;-56
2023/04/24 05:55:39;;;;;;;;;;;;;;;12.62;43.38;99542.88;5100612;28;19916;-58
2023/04/24 05:58:04;;;;;;;;;;;;;;;12.49;43.81;99546.56;5101329;28;19922;-57
2023/04/24 06:00:30;;;;;;;;;;;;;;;12.53;43.58;99548.56;5098620;28;20010;-58
2023/04/24 06:02:55;;;;;;;;;;;;;;;12.45;43.04;99542.69;5100952;28;19920;-57
2023/04/24 06:05:20;;;;;;;;;;;;;;;12.46;43.17;99530.88;5099407;28;20435;-59
2023/04/24 06:07:46;;;;;;;;;;;;;;;12.50;43.22;99535.56;5098855;28;19933;-59
2023/04/24 06:10:11;;;;;;;;;;;;;;;12.48;43.16;99526.06;5099467;28;19912;-59
2023/04/24 06:12:37;;;;;;;;;;;;;;;12.51;43.22;99531.81;5096880;28;19927;-61
2023/04/24 06:15:02;;;;;;;;;;;;;;;12.56;43.72;99537.34;5096649;28;19920;-59
2023/04/24 06:17:27;;;;;;;;;;;;;;;12.63;43.42;99541.81;5096470;28;19935;-59
2023/04/24 06:19:53;;;;;;;;;;;;;;;12.52;43.68;99546.13;5094906;28;19912;-60
2023/04/24 06:22:18;;;;;;;;;;;;;;;12.43;43.79;99548.31;5095634;28;19922;-60
2023/04/24 06:24:44;;;;;;;;;;;;;;;12.48;43.38;99543.06;5096966;28;19976;-59
2023/04/24 06:27:09;;;;;;;;;;;;;;;12.48;43.68;99539.53;5098379;28;19916;-57
2023/04/24 06:29:36;;;;;;;;;;;;;;;12.55;44.14;99540.25;5097914;28;19990;-60
2023/04/24 06:32:01;;;;;;;;;;;;;;;12.39;44.04;99539.88;5098816;28;19912;-60
2023/04/24 06:34:26;;;;;;;;;;;;;;;12.37;43.91;99533.88;5098437;28;19923;-60
2023/04/24 06:36:52;;;;;;;;;;;;;;;12.50;44.02;99538.28;5098060;28;19918;-61
2023/04/24 06:39:17;;;;;;;;;;;;;;;12.48;43.61;99535.00;5097389;28;19912;-57
2023/04/24 06:41:42;;;;;;;;;;;;;;;12.45;43.92;99545.41;5098481;28;19951;-60
2023/04/24 06:44:08;;;;;;;;;;;;;;;12.46;43.73;99537.09;5098486;28;19912;-58
2023/04/24 06:46:33;;;;;;;;;;;;;;;12.42;43.18;99546.66;5098203;28;19912;-58
2023/04/24 06:48:58;;;;;;;;;;;;;;;12.40;43.36;99548.75;5099177;28;19912;-58
2023/04/24 06:51:25;;;;;;;;;;;;;;;12.32;43.68;99554.47;5098585;28;19951;-57
2023/04/24 06:53:51;;;;;;;;;;;;;;;12.34;43.85;99552.38;5098493;28;19942;-59
2023/04/24 06:56:16;;;;;;;;;;;;;;;12.36;43.70;99548.38;5098999;28;19916;-62
2023/04/24 06:58:41;;;;;;;;;;;;;;;12.34;43.45;99552.38;5098161;28;19912;-59
2023/04/24 07:01:07;;;;;;;;;;;;;;;12.29;43.79;99558.41;5098224;28;20007;-61
2023/04/24 07:03:32;;;;;;;;;;;;;;;12.39;44.12;99547.94;5098253;28;19916;-59
2023/04/24 07:05:57;;;;;;;;;;;;;;;12.31;43.54;99556.34;5097906;28;19919;-61
2023/04/24 07:08:23;;;;;;;;;;;;;;;12.38;44.58;99558.94;5096225;28;19916;-61
2023/04/24 07:10:49;;;;;;;;;;;;;;;12.42;44.12;99552.03;5098201;28;19920;-58
2023/04/24 07:13:14;;;;;;;;;;;;;;;12.48;44.16;99540.38;5097790;28;19922;-59
2023/04/24 07:15:40;;;;;;;;;;;;;;;12.40;43.60;99541.50;5098066;28;19926;-59
2023/04/24 07:18:06;;;;;;;;;;;;;;;12.42;43.99;99538.56;5096870;28;20287;-58
2023/04/24 07:20:31;;;;;;;;;;;;;;;12.48;43.86;99532.28;5097277;28;19912;-60
2023/04/24 07:22:56;;;;;;;;;;;;;;;12.48;43.68;99535.00;5098256;28;20018;-60
2023/04/24 07:25:21;;;;;;;;;;;;;;;12.61;43.88;99539.38;5096527;28;19938;-61
2023/04/24 07:27:48;;;;;;;;;;;;;;;12.47;43.60;99536.03;5096901;28;20348;-60
2023/04/24 07:30:14;;;;;;;;;;;;;;;12.55;43.97;99541.06;5095497;28;20317;-60
2023/04/24 07:32:39;;;;;;;;;;;;;;;12.47;43.12;99535.22;5095157;28;19915;-60
2023/04/24 07:35:04;;;;;;;;;;;;;;;12.51;43.87;99533.69;5095740;28;20105;-59
2023/04/24 07:37:30;;;;;;;;;;;;;;;12.47;43.86;99540.59;5097102;28;19920;-60
2023/04/24 07:39:55;;;;;;;;;;;;;;;12.56;43.94;99550.00;5096494;28;19951;-59
2023/04/24 07:42:20;;;;;;;;;;;;;;;12.46;43.39;99557.78;5097110;28;19955;-59
2023/04/24 07:44:47;;;;;;;;;;;;;;;12.47;42.60;99571.03;5096561;28;19938;-59
2023/04/24 07:47:14;;;;;;;;;;;;;;;12.47;42.25;99568.34;5096492;28;19920;-59
2023/04/24 07:49:40;;;;;;;;;;;;;;;12.59;42.81;99555.75;5077578;28;19920;-60
2023/04/24 07:52:06;;;;;;;;;;;;;;;12.72;43.90;99551.19;5094818;28;19955;-60
2023/04/24 07:54:31;;;;;;;;;;;;;;;12.74;43.32;99543.72;5094834;28;19927;-59
2023/04/24 07:56:56;;;;;;;;;;;;;;;12.84;43.69;99541.28;5095192;28;19998;-61
2023/04/24 07:59:21;;;;;;;;;;;;;;;12.87;42.88;99534.59;5094755;28;19916;-61
2023/04/24 08:01:47;;;;;;;;;;;;;;;12.87;43.26;99519.28;5096673;28;19939;-60
2023/04/24 08:04:12;;;;;;;;;;;;;;;12.88;43.51;99523.59;5095867;28;19927;-59
2023/04/24 08:06:37;;;;;;;;;;;;;;;12.88;43.18;99534.38;5095837;28;20441;-59
2023/04/24 08:09:03;;;;;;;;;;;;;;;12.84;43.05;99532.38;5096118;28;19964;-61
2023/04/24 08:11:28;;;;;;;;;;;;;;;12.84;43.13;99537.78;5095577;28;19912;-60
2023/04/24 08:13:54;;;;;;;;;;;;;;;12.95;43.21;99532.41;5096202;28;20395;-59
2023/04/24 08:16:20;;;;;;;;;;;;;;;12.91;42.34;99527.72;5096861;28;20304;-59
2023/04/24 08:18:45;;;;;;;;;;;;;;;12.98;43.45;99539.19;5094792;28;20017;-60
2023/04/24 08:21:12;;;;;;;;;;;;;;;12.88;42.56;99537.06;5095832;28;20337;-60
2023/04/24 08:23:38;;;;;;;;;;;;;;;12.90;43.34;99536.84;5095636;28;20387;-59
2023/04/24 08:26:03;;;;;;;;;;;;;;;12.98;42.50;99533.78;5094656;28;19916;-60
2023/04/24 08:28:28;;;;;;;;;;;;;;;12.95;42.78;99532.41;5096213;28;20344;-60
2023/04/24 08:30:54;;;;;;;;;;;;;;;12.96;42.26;99530.50;5095857;28;19912;-59
2023/04/24 08:33:23;;;;;;;;;;;;;;;12.95;42.18;99518.91;5095963;28;19974;-59
2023/04/24 08:35:48;;;;;;;;;;;;;;;13.04;42.23;99529.34;5097499;28;19913;-57
2023/04/24 08:38:13;;;;;;;;;;;;;;;12.95;42.30;99531.59;5097136;28;19912;-59
2023/04/24 08:40:39;;;;;;;;;;;;;;;12.97;42.40;99534.88;5096808;28;19920;-59
2023/04/24 08:43:05;;;;;;;;;;;;;;;12.98;42.47;99523.84;5097303;28;19932;-60
2023/04/24 08:45:30;;;;;;;;;;;;;;;13.00;42.93;99533.56;5096577;28;19916;-60
2023/04/24 08:47:57;;;;;;;;;;;;;;;13.05;42.68;99529.13;5100511;28;19920;-58
2023/04/24 08:50:22;;;;;;;;;;;;;;;13.07;42.75;99528.88;5100425;28;19965;-61
2023/04/24 08:52:49;;;;;;;;;;;;;;;13.08;42.01;99527.84;5100034;28;19912;-57
2023/04/24 08:55:16;;;;;;;;;;;;;;;13.03;42.67;99520.44;5100400;28;19916;-59
2023/04/24 08:57:43;;;;;;;;;;;;;;;12.97;42.33;99524.91;5099650;28;20006;-58
2023/04/24 09:00:09;;;;;;;;;;;;;;;13.03;42.30;99519.63;5099562;28;19919;-59
2023/04/24 09:02:34;;;;;;;;;;;;;;;12.95;42.08;99528.88;5100642;28;19976;-58
2023/04/24 09:05:00;;;;;;;;;;;;;;;12.98;42.12;99531.09;5100400;28;19969;-61
2023/04/24 09:07:27;;;;;;;;;;;;;;;13.05;42.06;99542.59;5100176;28;19915;-58
2023/04/24 09:09:53;;;;;;;;;;;;;;;13.01;42.58;99535.22;5100155;28;19912;-60
2023/04/24 09:12:18;;;;;;;;;;;;;;;13.08;42.81;99536.75;5100345;28;19920;-59
2023/04/24 09:14:45;;;;;;;;;;;;;;;13.07;43.24;99543.19;5099437;28;19924;-59
2023/04/24 09:17:10;;;;;;;;;;;;;;;13.07;42.98;99548.56;5100320;28;19938;-60
2023/04/24 09:19:36;;;;;;;;;;;;;;;13.10;42.77;99550.81;5099214;28;20353;-61
2023/04/24 09:22:04;;;;;;;;;;;;;;;13.01;43.15;99549.50;5099125;28;19912;-59
2023/04/24 09:24:30;;;;;;;;;;;;;;;13.02;42.93;99543.09;5099881;28;19916;-58
2023/04/24 09:26:57;;;;;;;;;;;;;;;13.21;42.55;99549.19;5099508;28;19916;-60
2023/04/24 09:29:23;;;;;;;;;;;;;;;13.24;42.58;99550.59;5098138;28;19912;-60
2023/04/24 09:31:48;;;;;;;;;;;;;;;13.33;42.39;99544.66;5100433;28;19947;-58
2023/04/24 09:34:13;;;;;;;;;;;;;;;13.28;42.81;99547.19;5098573;28;19969;-59
2023/04/24 09:36:40;;;;;;;;;;;;;;;13.51;42.96;99543.69;5095861;28;19915;-60
2023/04/24 09:39:13;;;;;;;;;;;;;;;13.58;42.09;99540.88;5096461;28;19912;-60
2023/04/24 09:41:49;;;;;;;;;;;;;;;13.61;42.23;99540.41;5097140;28;19919;-62
2023/04/24 09:44:18;;;;;;;;;;;;;;;13.82;42.82;99535.44;5099248;28;19912;-59
2023/04/24 09:46:45;;;;;;;;;;;;;;;13.92;42.25;99531.06;5099222;28;19927;-59
2023/04/24 09:49:12;;;;;;;;;;;;;;;14.07;40.95;99529.75;5098176;28;19927;-61
2023/04/24 09:51:37;;;;;;;;;;;;;;;14.06;41.08;99525.41;5099242;28;19912;-60
2023/04/24 09:54:04;;;;;;;;;;;;;;;14.22;41.82;99530.03;5097814;28;19916;-58
2023/04/24 09:56:32;;;;;;;;;;;;;;;14.22;40.64;99527.34;5099647;28;19916;-58
2023/04/24 09:59:04;;;;;;;;;;;;;;;14.00;41.31;99535.28;5097592;28;19912;-59
2023/04/24 10:01:33;;;;;;;;;;;;;;;14.11;40.83;99533.59;5097071;28;19920;-59
2023/04/24 10:03:58;;;;;;;;;;;;;;;14.26;41.80;99533.94;5088799;28;19916;-61
2023/04/24 10:06:30;;;;;;;;;;;;;;;14.24;40.97;99541.41;5099050;28;20356;-58
2023/04/24 10:08:58;;;;;;;;;;;;;;;14.35;42.04;99541.63;5098616;28;19920;-60
2023/04/24 10:11:23;;;;;;;;;;;;;;;14.30;42.21;99548.59;5099337;28;19913;-59
2023/04/24 10:13:49;;;;;;;;;;;;;;;14.29;42.24;99552.34;5098153;28;19977;-59
2023/04/24 10:16:14;;;;;;;;;;;;;;;14.16;41.94;99554.50;5097846;28;19930;-59
2023/04/24 10:18:40;;;;;;;;;;;;;;;14.10;42.05;99546.28;5097210;28;19927;-59
2023/04/24 10:21:05;;;;;;;;;;;;;;;14.08;41.40;99553.81;5098394;28;19948;-59
2023/04/24 10:23:31;;;;;;;;;;;;;;;14.10;42.63;99551.69;5098111;28;19912;-60
2023/04/24 10:25:57;;;;;;;;;;;;;;;14.01;42.27;99555.00;5098804;28;20464;-58
2023/04/24 10:28:24;;;;;;;;;;;;;;;14.00;42.87;99551.47;5097336;28;19912;-59
2023/04/24 10:30:50;;;;;;;;;;;;;;;13.93;42.02;99558.91;5097836;28;20552;-58
2023/04/24 10:33:17;;;;;;;;;;;;;;;14.02;41.90;99559.34;5097946;28;19931;-61
2023/04/24 10:35:45;;;;;;;;;;;;;;;14.04;41.67;99560.75;5098644;28;20273;-60
2023/04/24 10:38:15;;;;;;;;;;;;;;;14.09;41.73;99566.25;5097525;28;20606;-61
2023/04/24 10:40:42;;;;;;;;;;;;;;;14.11;41.92;99553.34;5097147;28;19968;-58
2023/04/24 10:43:10;;;;;;;;;;;;;;;14.31;42.05;99555.59;5098123;28;20604;-61
2023/04/24 10:45:35;;;;;;;;;;;;;;;14.42;41.60;99550.41;5096524;28;19912;-60
2023/04/24 10:48:05;;;;;;;;;;;;;;;14.40;41.13;99541.72;5098871;28;19923;-60
2023/04/24 10:50:46;;;;;;;;;;;;;;;14.43;40.99;99557.44;5098092;28;20355;-60
2023/04/24 10:53:18;;;;;;;;;;;;;;;14.33;41.26;99553.47;5097480;28;19916;-60
2023/04/24 10:55:47;;;;;;;;;;;;;;;14.27;41.81;99550.94;5095283;28;20007;-59
2023/04/24 10:58:14;;;;;;;;;;;;;;;14.33;42.08;99548.09;5097439;28;20264;-59
2023/04/24 11:00:40;;;;;;;;;;;;;;;14.22;41.91;99540.84;5098363;28;20356;-59
2023/04/24 11:03:07;;;;;;;;;;;;;;;14.27;41.55;99546.34;5097382;28;19923;-60
2023/04/24 11:05:51;;;;;;;;;;;;;;;14.29;41.75;99543.41;5098545;28;20016;-59
2023/04/24 11:08:25;;;;;;;;;;;;;;;14.11;41.25;99545.25;5098456;28;19912;-60
2023/04/24 11:10:56;;;;;;;;;;;;;;;14.18;41.38;99550.50;5097810;28;19923;-58
2023/04/24 11:13:22;;;;;;;;;;;;;;;14.22;41.52;99550.84;5096931;28;20440;-60
2023/04/24 11:16:07;;;;;;;;;;;;;;;14.22;41.36;99556.25;5096681;28;19923;-60
2023/04/24 11:18:40;;;;;;;;;;;;;;;14.32;40.69;99556.44;5097714;28;19919;-59
2023/04/24 11:21:31;;;;;;;;;;;;;;;14.44;41.99;99543.69;5096861;28;19916;-59
2023/04/24 11:23:57;;;;;;;;;;;;;;;14.57;41.20;99545.31;5093515;28;19919;-59
2023/04/24 11:26:32;;;;;;;;;;;;;;;14.52;41.11;99539.78;5096867;28;24998;-60
2023/04/24 11:29:06;;;;;;;;;;;;;;;14.39;41.32;99540.91;5097367;28;19978;-59
2023/04/24 11:31:38;;;;;;;;;;;;;;;14.42;41.10;99545.81;5097603;28;19971;-61
2023/04/24 11:34:07;;;;;;;;;;;;;;;14.41;41.32;99541.50;5097296;28;20290;-59
2023/04/24 11:36:34;;;;;;;;;;;;;;;14.40;40.66;99531.75;5097100;28;19912;-60
2023/04/24 11:38:59;;;;;;;;;;;;;;;14.43;41.80;99547.47;5096908;28;19918;-59
2023/04/24 11:41:25;;;;;;;;;;;;;;;14.39;40.82;99538.19;5097359;28;20515;-59
2023/04/24 11:43:52;;;;;;;;;;;;;;;14.52;41.01;99537.91;5095802;28;19923;-60
2023/04/24 11:46:17;;;;;;;;;;;;;;;14.40;40.97;99545.25;5097006;28;19964;-59
2023/04/24 11:48:45;;;;;;;;;;;;;;;14.49;41.25;99534.88;5096422;28;20338;-58
2023/04/24 11:51:11;;;;;;;;;;;;;;;14.45;40.65;99539.09;5097024;28;19923;-61
2023/04/24 11:53:37;;;;;;;;;;;;;;;14.29;40.61;99548.81;5097136;28;20295;-59
2023/04/24 11:56:03;;;;;;;;;;;;;;;14.33;41.69;99547.28;5096794;28;19966;-59
2023/04/24 11:58:28;;;;;;;;;;;;;;;14.33;41.74;99548.09;5096799;28;20337;-59
2023/04/24 12:00:57;;;;;;;;;;;;;;;14.31;40.40;99544.81;5097430;28;19912;-59
2023/04/24 12:03:23;;;;;;;;;;;;;;;14.40;41.43;99544.44;5097016;28;19912;-59
2023/04/24 12:05:48;;;;;;;;;;;;;;;14.30;41.16;99545.88;5097182;28;19983;-58
2023/04/24 12:08:29;;;;;;;;;;;;;;;14.34;40.19;99538.13;5097233;28;19943;-61
2023/04/24 12:10:55;;;;;;;;;;;;;;;14.38;40.95;99539.28;5096311;28;19912;-59
2023/04/24 12:13:21;;;;;;;;;;;;;;;14.46;41.03;99533.47;5096143;28;19973;-60
2023/04/24 12:15:46;;;;;;;;;;;;;;;14.47;40.64;99528.91;5094998;28;19923;-60
2023/04/24 12:18:12;;;;;;;;;;;;;;;14.33;40.07;99541.88;5096294;28;20396;-61
2023/04/24 12:20:37;;;;;;;;;;;;;;;14.36;40.61;99535.16;5095932;28;19919;-60
2023/04/24 12:23:03;;;;;;;;;;;;;;;14.62;41.13;99537.31;5095955;28;19916;-60
2023/04/24 12:25:29;;;;;;;;;;;;;;;14.65;40.53;99527.88;5096370;28;19912;-61
2023/04/24 12:28:03;;;;;;;;;;;;;;;14.62;40.43;99528.38;5096874;28;19951;-60
2023/04/24 12:30:30;;;;;;;;;;;;;;;14.67;39.67;99537.41;5095850;28;19919;-57
2023/04/24 12:32:56;;;;;;;;;;;;;;;14.57;39.41;99534.50;5096178;28;19916;-60
2023/04/24 12:35:23;;;;;;;;;;;;;;;14.68;40.77;99528.22;5096116;28;19944;-59
2023/04/24 12:37:48;;;;;;;;;;;;;;;14.56;39.72;99532.00;5096648;28;20287;-61
2023/04/24 12:40:14;;;;;;;;;;;;;;;14.62;40.43;99531.91;5095135;28;19955;-61
2023/04/24 12:42:47;;;;;;;;;;;;;;;14.60;40.75;99525.09;5096009;28;19922;-60